createdAt,value
2019-05-13T00:00:44.804Z,73.29
2019-05-13T00:03:14.414Z,73.40
2019-05-13T00:05:44.509Z,73.56
2019-05-13T00:08:14.243Z,73.72
2019-05-13T00:10:46.751Z,73.86
2019-05-13T00:13:16.097Z,74.09
2019-05-13T00:15:45.421Z,74.36
2019-05-13T00:18:14.737Z,74.61
2019-05-13T00:20:44.518Z,75.02
2019-05-13T00:23:14.453Z,75.69
2019-05-13T00:25:44.542Z,76.17
2019-05-13T00:28:14.637Z,76.50
2019-05-13T00:30:44.737Z,77.03
2019-05-13T00:33:14.260Z,77.14
2019-05-13T00:35:44.231Z,77.87
2019-05-13T00:38:14.265Z,78.09
2019-05-13T00:40:44.515Z,78.14
2019-05-13T00:43:14.406Z,78.16
2019-05-13T00:45:44.555Z,77.97
2019-05-13T00:48:14.475Z,77.85
2019-05-13T00:50:44.393Z,77.95
2019-05-13T00:53:13.839Z,77.70
2019-05-13T00:55:44.418Z,77.44
2019-05-13T00:58:14.323Z,76.87
2019-05-13T01:00:44.652Z,76.79
2019-05-13T01:03:14.598Z,76.99
2019-05-13T01:05:44.659Z,77.52
2019-05-13T01:08:14.714Z,77.61
2019-05-13T01:10:45.102Z,77.34
2019-05-13T01:13:14.952Z,76.50
2019-05-13T01:15:44.571Z,75.99
2019-05-13T01:18:14.438Z,75.61
2019-05-13T01:20:44.068Z,75.30
2019-05-13T01:23:14.190Z,75.35
2019-05-13T01:25:44.637Z,75.67
2019-05-13T01:28:14.134Z,75.69
2019-05-13T01:30:44.126Z,75.64
2019-05-13T01:33:14.526Z,75.45
2019-05-13T01:35:44.553Z,75.85
2019-05-13T01:38:14.242Z,75.61
2019-05-13T01:40:44.109Z,75.79
2019-05-13T01:43:14.342Z,76.14
2019-05-13T01:45:44.398Z,76.27
2019-05-13T01:48:14.318Z,76.61
2019-05-13T01:50:44.650Z,76.78
2019-05-13T01:53:14.688Z,76.87
2019-05-13T01:55:44.495Z,76.33
2019-05-13T01:58:14.746Z,75.90
2019-05-13T02:00:44.700Z,75.89
2019-05-13T02:03:14.710Z,75.93
2019-05-13T02:05:44.504Z,75.87
2019-05-13T02:08:14.527Z,76.18
2019-05-13T02:10:54.968Z,76.26
2019-05-13T02:13:25.030Z,76.21
2019-05-13T02:15:56.004Z,76.00
2019-05-13T02:18:25.378Z,75.95
2019-05-13T02:20:55.786Z,76.18
2019-05-13T02:23:25.402Z,76.28
2019-05-13T02:25:54.842Z,76.20
2019-05-13T02:28:25.027Z,75.90
2019-05-13T02:30:56.865Z,75.75
2019-05-13T02:33:25.726Z,75.69
2019-05-13T02:35:55.117Z,75.85
2019-05-13T02:38:30.122Z,76.04
2019-05-13T02:40:55.559Z,75.85
2019-05-13T02:43:24.865Z,75.39
2019-05-13T02:45:54.673Z,75.25
2019-05-13T02:48:24.414Z,75.21
2019-05-13T02:50:54.621Z,75.16
2019-05-13T02:53:24.639Z,75.58
2019-05-13T02:55:54.182Z,75.98
2019-05-13T02:58:25.181Z,76.19
2019-05-13T03:00:54.997Z,76.31
2019-05-13T03:03:24.394Z,76.40
2019-05-13T03:05:54.135Z,76.76
2019-05-13T03:08:39.243Z,77.18
2019-05-13T03:10:54.739Z,77.69
2019-05-13T03:13:24.411Z,77.84
2019-05-13T03:16:12.862Z,77.42
2019-05-13T03:18:43.533Z,77.00
2019-05-13T03:21:13.089Z,76.88
2019-05-13T03:23:44.207Z,76.95
2019-05-13T03:26:13.807Z,77.02
2019-05-13T03:28:44.023Z,76.92
2019-05-13T03:31:16.677Z,77.08
2019-05-13T03:33:47.175Z,77.50
2019-05-13T03:36:17.748Z,77.68
2019-05-13T03:39:01.486Z,77.92
2019-05-13T03:41:22.531Z,78.07
2019-05-13T03:43:53.372Z,78.11
2019-05-13T03:46:24.161Z,78.00
2019-05-13T03:48:54.975Z,77.97
2019-05-13T03:51:24.555Z,77.73
2019-05-13T03:53:54.031Z,77.61
2019-05-13T03:56:24.096Z,77.41
2019-05-13T03:58:54.134Z,77.47
2019-05-13T04:01:23.994Z,77.77
2019-05-13T04:03:53.447Z,77.87
2019-05-13T04:06:23.648Z,77.92
2019-05-13T04:08:54.067Z,77.96
2019-05-13T04:11:24.127Z,77.57
2019-05-13T04:13:53.688Z,77.29
2019-05-13T04:16:23.894Z,76.98
2019-05-13T04:18:53.913Z,75.93
2019-05-13T04:21:23.647Z,76.35
2019-05-13T04:23:53.601Z,76.83
2019-05-13T04:26:23.822Z,76.78
2019-05-13T04:28:53.660Z,77.00
2019-05-13T04:31:23.225Z,76.31
2019-05-13T04:33:53.395Z,75.50
2019-05-13T04:36:23.849Z,75.05
2019-05-13T04:38:53.344Z,73.94
2019-05-13T04:41:23.373Z,73.91
2019-05-13T04:43:53.899Z,73.19
2019-05-13T04:46:23.753Z,73.06
2019-05-13T04:48:53.433Z,72.21
2019-05-13T04:51:23.069Z,72.24
2019-05-13T04:53:56.833Z,72.27
2019-05-13T04:56:24.028Z,71.21
2019-05-13T04:58:53.374Z,70.24
2019-05-13T05:01:55.316Z,70.56
2019-05-13T05:04:34.045Z,71.54
2019-05-13T05:07:22.238Z,72.24
2019-05-13T05:10:29.274Z,72.45
2019-05-13T05:13:24.373Z,71.38
2019-05-13T05:16:55.423Z,71.28
2019-05-13T05:19:52.446Z,70.88
2019-05-13T05:23:15.625Z,67.57
2019-05-13T05:26:01.245Z,66.37
2019-05-13T05:28:46.545Z,66.55
2019-05-13T05:31:53.432Z,67.73
2019-05-13T05:35:18.789Z,67.93
2019-05-13T05:38:26.226Z,68.10
2019-05-13T05:41:01.540Z,68.97
2019-05-13T05:43:33.763Z,69.40
2019-05-13T05:46:04.271Z,69.31
2019-05-13T05:48:35.244Z,70.06
2019-05-13T05:51:08.013Z,69.71
2019-05-13T05:53:39.638Z,69.54
2019-05-13T05:56:11.416Z,70.01
2019-05-13T05:58:42.976Z,69.54
2019-05-13T06:01:13.872Z,68.99
2019-05-13T06:03:45.332Z,67.96
2019-05-13T06:06:15.661Z,67.07
2019-05-13T06:08:45.331Z,64.75
2019-05-13T06:11:14.960Z,63.76
2019-05-13T06:13:44.308Z,62.25
2019-05-13T06:16:13.732Z,62.26
2019-05-13T06:18:43.072Z,61.76
2019-05-13T06:21:12.486Z,62.34
2019-05-13T06:23:42.015Z,63.21
2019-05-13T06:26:12.598Z,62.94
2019-05-13T06:28:42.084Z,62.97
2019-05-13T06:31:12.466Z,64.45
2019-05-13T06:33:42.358Z,65.00
2019-05-13T06:36:11.713Z,65.08
2019-05-13T06:38:42.418Z,64.25
2019-05-13T06:41:14.603Z,65.19
2019-05-13T06:43:43.000Z,65.18
2019-05-13T06:46:13.144Z,65.21
2019-05-13T06:48:42.539Z,65.49
2019-05-13T06:51:11.847Z,65.64
2019-05-13T06:53:41.633Z,65.65
2019-05-13T06:56:12.123Z,65.89
2019-05-13T06:58:41.779Z,65.71
2019-05-13T07:01:11.590Z,65.29
2019-05-13T07:03:42.008Z,64.73
2019-05-13T07:06:12.333Z,64.22
2019-05-13T07:08:41.972Z,63.90
2019-05-13T07:11:18.594Z,63.60
2019-05-13T07:13:42.441Z,63.74
2019-05-13T07:16:12.018Z,62.52
2019-05-13T07:18:41.660Z,63.17
2019-05-13T07:21:12.510Z,63.37
2019-05-13T07:23:42.408Z,63.76
2019-05-13T07:26:12.376Z,64.10
2019-05-13T07:28:42.843Z,62.58
2019-05-13T07:31:12.428Z,61.38
2019-05-13T07:33:42.645Z,60.85
2019-05-13T07:36:12.840Z,61.43
2019-05-13T07:38:42.283Z,62.11
2019-05-13T07:51:28.452Z,63.50
2019-05-13T07:53:57.788Z,63.94
2019-05-13T07:56:27.125Z,63.88
2019-05-13T07:58:56.463Z,63.84
2019-05-13T08:01:25.844Z,64.02
2019-05-13T08:03:55.186Z,63.87
2019-05-13T08:06:24.533Z,64.01
2019-05-13T08:08:53.870Z,63.74
2019-05-13T08:11:23.997Z,64.21
2019-05-13T08:13:53.678Z,63.82
2019-05-13T08:16:46.923Z,64.26
2019-05-13T08:19:16.243Z,64.01
2019-05-13T08:21:45.579Z,64.75
2019-05-13T08:24:14.970Z,64.90
2019-05-13T08:26:49.795Z,64.82
2019-05-13T08:29:15.373Z,64.70
2019-05-13T08:31:44.739Z,64.76
2019-05-13T08:34:52.538Z,65.06
2019-05-13T08:37:21.851Z,65.22
2019-05-13T08:39:52.197Z,65.11
2019-05-13T08:42:23.569Z,65.09
2019-05-13T08:44:53.153Z,65.48
2019-05-13T08:47:22.594Z,65.67
2019-05-13T08:49:52.193Z,65.40
2019-05-13T08:52:22.004Z,64.71
2019-05-13T08:54:52.413Z,64.72
2019-05-13T08:57:22.299Z,64.68
2019-05-13T08:59:51.850Z,64.90
2019-05-13T09:02:22.151Z,64.63
2019-05-13T09:04:51.761Z,64.45
2019-05-13T09:07:24.191Z,64.78
2019-05-13T09:09:52.752Z,64.26
2019-05-13T09:12:31.988Z,64.60
2019-05-13T09:14:53.259Z,63.82
2019-05-13T09:17:22.658Z,64.41
2019-05-13T09:19:52.185Z,64.34
2019-05-13T09:22:21.684Z,63.66
2019-05-13T09:24:53.080Z,63.90
2019-05-13T09:27:22.672Z,63.98
2019-05-13T09:29:52.198Z,63.51
2019-05-13T09:32:21.767Z,63.41
2019-05-13T09:34:52.541Z,63.62
2019-05-13T09:37:22.705Z,62.92
2019-05-13T09:39:52.243Z,62.64
2019-05-13T09:42:21.855Z,62.88
2019-05-13T09:44:52.508Z,62.13
2019-05-13T09:47:22.253Z,62.48
2019-05-13T09:49:51.597Z,62.01
2019-05-13T09:52:22.609Z,61.14
2019-05-13T09:54:52.456Z,61.68
2019-05-13T09:57:22.162Z,61.04
2019-05-13T09:59:52.373Z,60.94
2019-05-13T10:02:21.964Z,60.51
2019-05-13T10:04:51.693Z,60.89
2019-05-13T10:07:22.894Z,60.26
2019-05-13T10:09:52.327Z,60.75
2019-05-13T10:12:24.412Z,59.94
2019-05-13T10:14:54.239Z,59.48
2019-05-13T10:17:23.567Z,59.82
2019-05-13T10:19:52.915Z,59.91
2019-05-13T10:22:22.393Z,60.13
2019-05-13T10:24:51.742Z,59.92
2019-05-13T10:27:22.334Z,59.60
2019-05-13T10:29:52.404Z,59.68
2019-05-13T10:32:22.139Z,59.47
2019-05-13T10:34:53.961Z,59.61
2019-05-13T10:37:23.281Z,59.97
2019-05-13T10:39:52.726Z,57.80
2019-05-13T10:42:22.380Z,57.67
2019-05-13T10:44:52.485Z,56.85
2019-05-13T10:47:22.778Z,56.22
2019-05-13T10:49:52.653Z,55.53
2019-05-13T10:52:22.925Z,56.10
2019-05-13T10:54:52.848Z,55.70
2019-05-13T10:57:22.429Z,52.92
2019-05-13T10:59:52.893Z,52.50
2019-05-13T11:02:22.405Z,52.83
2019-05-13T11:04:52.555Z,52.59
2019-05-13T11:07:22.649Z,53.95
2019-05-13T11:09:52.836Z,56.34
2019-05-13T11:12:27.989Z,56.52
2019-05-13T11:17:30.867Z,56.71
2019-05-13T11:19:55.744Z,56.32
2019-05-13T11:22:25.114Z,57.05
2019-05-13T11:24:54.507Z,57.07
2019-05-13T11:27:23.946Z,57.47
2019-05-13T11:29:53.280Z,56.35
2019-05-13T11:32:22.652Z,56.55
2019-05-13T11:34:53.100Z,57.12
2019-05-13T11:37:23.371Z,57.69
2019-05-13T11:39:52.815Z,58.46
2019-05-13T11:42:22.852Z,57.84
2019-05-13T11:44:52.965Z,58.93
2019-05-13T11:47:22.563Z,59.27
2019-05-13T11:49:52.476Z,58.82
2019-05-13T11:52:22.655Z,58.35
2019-05-13T11:54:53.890Z,58.25
2019-05-13T11:57:23.340Z,58.68
2019-05-13T11:59:53.030Z,57.91
2019-05-13T12:02:23.351Z,57.75
2019-05-13T12:04:53.765Z,57.93
2019-05-13T12:07:23.586Z,58.37
2019-05-13T12:09:53.037Z,57.73
2019-05-13T12:12:25.050Z,57.74
2019-05-13T12:15:21.038Z,57.87
2019-05-13T12:17:24.625Z,57.21
2019-05-13T12:19:54.458Z,57.05
2019-05-13T12:22:23.920Z,56.79
2019-05-13T12:24:53.246Z,56.83
2019-05-13T12:27:22.800Z,56.30
2019-05-13T12:29:53.116Z,55.68
2019-05-13T12:32:22.829Z,55.63
2019-05-13T12:34:52.855Z,55.34
2019-05-13T12:37:22.444Z,55.05
2019-05-13T12:39:53.016Z,55.10
2019-05-13T12:42:22.993Z,55.72
2019-05-13T12:45:08.251Z,55.42
2019-05-13T12:47:23.415Z,54.49
2019-05-13T12:49:52.750Z,52.95
2019-05-13T12:52:22.884Z,52.85
2019-05-13T12:54:53.102Z,53.95
2019-05-13T12:57:23.320Z,54.97
2019-05-13T12:59:52.702Z,54.20
2019-05-13T13:02:22.687Z,55.84
2019-05-13T13:05:13.040Z,55.27
2019-05-13T13:07:23.312Z,56.36
2019-05-13T13:09:53.866Z,56.16
2019-05-13T13:12:33.749Z,56.75
2019-05-13T13:14:54.792Z,57.06
2019-05-13T13:17:24.447Z,57.30
2019-05-13T13:19:59.815Z,57.88
2019-05-13T13:22:25.582Z,58.07
2019-05-13T13:24:57.395Z,57.94
2019-05-13T13:27:58.994Z,58.39
2019-05-13T13:30:03.225Z,58.65
2019-05-13T13:32:28.250Z,58.92
2019-05-13T13:34:57.583Z,57.91
2019-05-13T13:37:27.171Z,58.52
2019-05-13T13:39:56.479Z,59.23
2019-05-13T13:42:25.870Z,58.52
2019-05-13T13:44:55.175Z,58.75
2019-05-13T13:47:24.593Z,58.74
2019-05-13T13:49:53.942Z,57.97
2019-05-13T13:52:23.292Z,58.99
2019-05-13T13:55:02.699Z,59.06
2019-05-13T13:57:25.548Z,59.90
2019-05-13T14:00:20.169Z,59.34
2019-05-13T14:02:25.874Z,59.16
2019-05-13T14:04:55.889Z,58.89
2019-05-13T14:06:28.715Z,56.60
2019-05-13T14:07:34.483Z,59.47
2019-05-13T14:09:56.348Z,59.64
2019-05-13T14:12:25.681Z,59.22
2019-05-13T14:14:55.018Z,60.03
2019-05-13T14:17:24.364Z,59.81
2019-05-13T14:19:53.733Z,60.12
2019-05-13T14:22:23.123Z,60.71
2019-05-13T14:24:52.603Z,61.02
2019-05-13T14:27:22.515Z,61.47
2019-05-13T14:29:52.755Z,61.61
2019-05-13T14:32:22.536Z,61.68
2019-05-13T14:34:52.874Z,62.10
2019-05-13T14:37:22.549Z,62.08
2019-05-13T14:39:51.886Z,62.40
2019-05-13T14:42:22.709Z,62.52
2019-05-13T14:44:52.338Z,62.67
2019-05-13T14:47:21.896Z,62.19
2019-05-13T14:49:52.124Z,62.35
2019-05-13T14:52:22.340Z,62.40
2019-05-13T14:54:51.826Z,62.36
2019-05-13T14:57:21.798Z,61.70
2019-05-13T14:59:51.570Z,61.65
2019-05-13T15:02:20.893Z,61.40
2019-05-13T15:04:52.332Z,61.92
2019-05-13T15:07:21.751Z,62.10
2019-05-13T15:09:51.598Z,62.25
2019-05-13T15:12:21.659Z,62.47
2019-05-13T15:14:52.893Z,62.94
2019-05-13T15:17:22.236Z,62.83
2019-05-13T15:19:52.518Z,63.11
2019-05-13T15:22:22.851Z,63.07
2019-05-13T15:24:52.230Z,63.08
2019-05-13T15:27:22.300Z,63.06
2019-05-13T15:29:51.918Z,63.30
2019-05-13T15:32:21.887Z,63.40
2019-05-13T15:34:51.981Z,63.61
2019-05-13T15:37:21.564Z,63.51
2019-05-13T15:39:51.864Z,63.80
2019-05-13T15:42:21.526Z,63.74
2019-05-13T15:44:53.116Z,63.54
2019-05-13T15:47:25.788Z,63.90
2019-05-13T15:49:53.103Z,64.09
2019-05-13T15:52:23.413Z,63.99
2019-05-13T15:54:52.740Z,63.90
2019-05-13T15:57:22.065Z,63.97
2019-05-13T15:59:51.887Z,64.05
2019-05-13T16:02:22.626Z,64.07
2019-05-13T16:05:00.578Z,64.18
2019-05-13T16:07:23.293Z,64.38
2019-05-13T16:09:52.825Z,64.22
2019-05-13T16:12:22.130Z,64.41
2019-05-13T16:14:51.645Z,64.52
2019-05-13T16:17:30.613Z,64.64
2019-05-13T16:19:53.536Z,64.52
2019-05-13T16:22:23.275Z,64.30
2019-05-13T16:24:52.739Z,63.88
2019-05-13T16:27:22.370Z,62.92
2019-05-13T16:29:51.795Z,62.34
2019-05-13T16:32:22.697Z,61.92
2019-05-13T16:34:52.290Z,61.84
2019-05-13T16:37:22.059Z,61.61
2019-05-13T16:39:52.185Z,61.75
2019-05-13T16:42:22.521Z,61.70
2019-05-13T16:44:52.056Z,62.04
2019-05-13T16:47:21.428Z,62.42
2019-05-13T16:49:50.748Z,62.82
2019-05-13T16:52:22.059Z,63.11
2019-05-13T16:54:53.186Z,63.61
2019-05-13T16:57:22.381Z,63.97
2019-05-13T16:59:51.940Z,64.46
2019-05-13T17:02:21.491Z,64.94
2019-05-13T17:04:52.046Z,65.08
2019-05-13T17:07:21.585Z,65.23
2019-05-13T17:09:52.200Z,65.58
2019-05-13T17:12:21.751Z,65.78
2019-05-13T17:14:52.292Z,65.96
2019-05-13T17:17:21.805Z,66.18
2019-05-13T17:19:53.700Z,66.25
2019-05-13T17:22:22.341Z,66.30
2019-05-13T17:24:52.156Z,66.73
2019-05-13T17:27:21.531Z,66.49
2019-05-13T17:29:51.730Z,66.34
2019-05-13T17:32:22.184Z,66.39
2019-05-13T17:34:51.714Z,66.75
2019-05-13T17:37:23.260Z,66.94
2019-05-13T17:39:52.611Z,67.33
2019-05-13T17:42:21.980Z,67.51
2019-05-13T17:44:52.604Z,67.71
2019-05-13T17:47:22.058Z,67.75
2019-05-13T17:49:52.121Z,67.88
2019-05-13T17:52:22.117Z,67.89
2019-05-13T17:54:51.895Z,68.03
2019-05-13T17:57:21.697Z,68.05
2019-05-13T17:59:52.091Z,68.05
2019-05-13T18:02:21.801Z,67.95
2019-05-13T18:04:52.133Z,68.03
2019-05-13T18:07:21.638Z,68.18
2019-05-13T18:09:52.035Z,68.35
2019-05-13T18:12:22.400Z,68.51
2019-05-13T18:14:51.861Z,68.95
2019-05-13T18:17:21.701Z,69.10
2019-05-13T18:19:51.520Z,69.28
2019-05-13T18:22:20.966Z,69.22
2019-05-13T18:24:51.920Z,69.28
2019-05-13T18:27:23.189Z,69.29
2019-05-13T18:29:52.703Z,69.42
2019-05-13T18:32:22.051Z,69.57
2019-05-13T18:34:51.370Z,69.80
2019-05-13T18:37:22.128Z,70.04
2019-05-13T18:39:52.174Z,70.15
2019-05-13T18:42:22.354Z,70.42
2019-05-13T18:44:51.892Z,70.57
2019-05-13T18:47:22.105Z,70.62
2019-05-13T18:49:51.723Z,70.57
2019-05-13T18:52:22.317Z,70.64
2019-05-13T18:54:51.902Z,70.79
2019-05-13T18:57:21.405Z,70.96
2019-05-13T18:59:52.011Z,70.91
2019-05-13T19:02:22.533Z,71.20
2019-05-13T19:04:52.319Z,71.45
2019-05-13T19:07:22.023Z,71.75
2019-05-13T19:09:52.361Z,72.00
2019-05-13T19:12:22.036Z,72.11
2019-05-13T19:14:51.772Z,72.29
2019-05-13T19:17:22.347Z,72.61
2019-05-13T19:19:51.956Z,72.76
2019-05-13T19:22:21.510Z,73.10
2019-05-13T19:24:51.784Z,73.50
2019-05-13T19:27:21.666Z,73.85
2019-05-13T19:29:52.457Z,74.09
2019-05-13T19:32:22.122Z,74.31
2019-05-13T19:34:51.795Z,74.72
2019-05-13T19:37:22.391Z,74.77
2019-05-13T19:39:52.499Z,74.85
2019-05-13T19:42:22.444Z,74.82
2019-05-13T19:44:51.840Z,74.82
2019-05-13T19:47:21.176Z,74.75
2019-05-13T19:49:52.307Z,74.64
2019-05-13T19:52:21.795Z,74.72
2019-05-13T19:54:51.451Z,74.55
2019-05-13T19:57:21.289Z,74.26
2019-05-13T19:59:50.799Z,74.15
2019-05-13T20:02:22.189Z,74.11
2019-05-13T20:04:52.357Z,73.44
2019-05-13T20:07:22.418Z,72.91
2019-05-13T20:09:51.983Z,72.54
2019-05-13T20:12:21.345Z,72.05
2019-05-13T20:14:51.736Z,71.15
2019-05-13T20:17:21.195Z,70.45
2019-05-13T20:19:58.022Z,70.22
2019-05-13T20:22:27.338Z,69.85
2019-05-13T20:24:56.821Z,69.31
2019-05-13T20:27:26.131Z,68.99
2019-05-13T20:29:55.637Z,69.00
2019-05-13T20:32:24.986Z,69.06
2019-05-13T20:34:54.325Z,68.79
2019-05-13T20:37:23.680Z,68.95
2019-05-13T20:39:53.044Z,68.88
2019-05-13T20:42:23.398Z,68.55
2019-05-13T20:44:52.927Z,68.48
2019-05-13T20:47:22.242Z,68.24
2019-05-13T20:50:01.475Z,68.22
2019-05-13T20:52:22.750Z,67.81
2019-05-13T20:54:52.150Z,67.87
2019-05-13T20:57:22.334Z,67.86
2019-05-13T20:59:52.574Z,68.21
2019-05-13T21:02:22.306Z,68.49
2019-05-13T21:04:51.744Z,68.59
2019-05-13T21:07:21.692Z,68.75
2019-05-13T21:09:51.366Z,69.28
2019-05-13T21:12:22.073Z,69.44
2019-05-13T21:14:51.635Z,69.96
2019-05-13T21:17:21.387Z,70.58
2019-05-13T21:19:52.799Z,70.71
2019-05-13T21:22:21.959Z,70.85
2019-05-13T21:24:51.594Z,70.91
2019-05-13T21:27:20.918Z,71.14
2019-05-13T21:29:51.948Z,71.30
2019-05-13T21:32:21.547Z,71.65
2019-05-13T21:34:51.630Z,72.20
2019-05-13T21:37:22.102Z,72.63
2019-05-13T21:39:51.843Z,73.09
2019-05-13T21:42:21.743Z,73.03
2019-05-13T21:44:51.426Z,73.70
2019-05-13T21:47:21.989Z,74.21
2019-05-13T21:49:51.715Z,74.95
2019-05-13T21:52:23.774Z,75.30
2019-05-13T21:54:52.222Z,75.51
2019-05-13T21:57:21.622Z,75.89
2019-05-13T21:59:51.588Z,76.16
2019-05-13T22:02:21.238Z,76.91
2019-05-13T22:04:52.144Z,77.52
2019-05-13T22:07:22.261Z,77.59
2019-05-13T22:09:51.843Z,78.07
2019-05-13T22:12:21.778Z,78.74
2019-05-13T22:14:51.727Z,80.07
2019-05-13T22:17:21.265Z,80.62
2019-05-13T22:19:51.276Z,81.64
2019-05-13T22:22:22.117Z,82.36
2019-05-13T22:24:51.517Z,82.66
2019-05-13T22:27:21.821Z,82.97
2019-05-13T22:29:51.648Z,83.10
2019-05-13T22:32:21.999Z,83.15
2019-05-13T22:34:51.471Z,83.05
2019-05-13T22:37:23.013Z,82.91
2019-05-13T22:39:51.977Z,82.70
2019-05-13T22:42:21.638Z,83.02
2019-05-13T22:44:52.239Z,83.22
2019-05-13T22:47:22.162Z,83.27
2019-05-13T22:49:51.679Z,83.25
2019-05-13T22:52:21.868Z,83.34
2019-05-13T22:54:51.819Z,83.23
2019-05-13T22:57:21.948Z,83.15
2019-05-13T22:59:52.072Z,83.08
2019-05-13T23:02:22.066Z,82.96
2019-05-13T23:04:51.542Z,83.15
2019-05-13T23:07:22.338Z,83.44
2019-05-13T23:09:52.054Z,83.49
2019-05-13T23:12:24.503Z,83.70
2019-05-13T23:14:53.978Z,83.85
2019-05-13T23:17:23.378Z,84.14
2019-05-13T23:19:52.781Z,84.28
2019-05-13T23:22:22.132Z,84.36
2019-05-13T23:24:51.545Z,84.60
2019-05-13T23:27:21.984Z,84.93
2019-05-13T23:29:51.769Z,85.23
2019-05-13T23:32:21.343Z,85.33
2019-05-13T23:34:51.326Z,85.33
2019-05-13T23:37:21.831Z,85.44
2019-05-13T23:39:51.993Z,85.43
2019-05-13T23:42:21.502Z,85.33
2019-05-13T23:44:51.741Z,85.36
2019-05-13T23:47:21.857Z,85.20
2019-05-13T23:49:51.460Z,85.44
2019-05-13T23:52:21.944Z,85.36
2019-05-13T23:54:51.776Z,85.36
2019-05-13T23:57:22.220Z,85.32
2019-05-13T23:59:51.745Z,86.22
